sensor_id;sensor_type;location;lat;lon;timestamp;P1;durP1;ratioP1;P2;durP2;ratioP2
23390;SDS011;11868;45.606;5.302;2022-10-04T00:00:37;5.40;;;2.85;;
23390;SDS011;11868;45.606;5.302;2022-10-04T00:03:09;4.55;;;2.70;;
23390;SDS011;11868;45.606;5.302;2022-10-04T00:05:41;4.35;;;3.00;;
23390;SDS011;11868;45.606;5.302;2022-10-04T00:08:18;9.75;;;3.15;;
23390;SDS011;11868;45.606;5.302;2022-10-04T00:13:29;10.38;;;3.58;;
23390;SDS011;11868;45.606;5.302;2022-10-04T00:15:54;8.02;;;3.42;;
23390;SDS011;11868;45.606;5.302;2022-10-04T00:18:22;6.65;;;3.60;;
23390;SDS011;11868;45.606;5.302;2022-10-04T00:20:58;5.63;;;3.40;;
23390;SDS011;11868;45.606;5.302;2022-10-04T00:23:26;6.07;;;3.35;;
23390;SDS011;11868;45.606;5.302;2022-10-04T00:26:00;9.95;;;4.10;;
23390;SDS011;11868;45.606;5.302;2022-10-04T00:28:27;5.75;;;3.30;;
23390;SDS011;11868;45.606;5.302;2022-10-04T00:33:35;8.95;;;4.05;;
23390;SDS011;11868;45.606;5.302;2022-10-04T00:44:16;5.85;;;3.80;;
23390;SDS011;11868;45.606;5.302;2022-10-04T00:46:52;4.85;;;3.60;;
23390;SDS011;11868;45.606;5.302;2022-10-04T00:49:22;6.47;;;3.70;;
23390;SDS011;11868;45.606;5.302;2022-10-04T00:54:28;7.35;;;3.65;;
23390;SDS011;11868;45.606;5.302;2022-10-04T00:57:03;6.07;;;4.18;;
23390;SDS011;11868;45.606;5.302;2022-10-04T00:59:41;7.60;;;4.00;;
23390;SDS011;11868;45.606;5.302;2022-10-04T01:02:22;5.97;;;4.35;;
23390;SDS011;11868;45.606;5.302;2022-10-04T01:04:55;8.43;;;4.50;;
23390;SDS011;11868;45.606;5.302;2022-10-04T01:09:59;10.35;;;4.57;;
23390;SDS011;11868;45.606;5.302;2022-10-04T01:17:38;10.73;;;4.53;;
23390;SDS011;11868;45.606;5.302;2022-10-04T01:20:12;9.75;;;5.10;;
23390;SDS011;11868;45.606;5.302;2022-10-04T01:22:53;10.32;;;5.00;;
23390;SDS011;11868;45.606;5.302;2022-10-04T01:28:08;9.20;;;5.70;;
23390;SDS011;11868;45.606;5.302;2022-10-04T01:30:33;10.82;;;5.63;;
23390;SDS011;11868;45.606;5.302;2022-10-04T01:32:58;13.93;;;5.97;;
23390;SDS011;11868;45.606;5.302;2022-10-04T01:35:24;11.25;;;5.15;;
23390;SDS011;11868;45.606;5.302;2022-10-04T01:37:50;14.00;;;5.50;;
23390;SDS011;11868;45.606;5.302;2022-10-04T01:40:16;9.77;;;4.65;;
23390;SDS011;11868;45.606;5.302;2022-10-04T01:42:47;11.00;;;4.85;;
23390;SDS011;11868;45.606;5.302;2022-10-04T01:50:22;19.10;;;5.78;;
23390;SDS011;11868;45.606;5.302;2022-10-04T01:52:53;20.58;;;6.78;;
23390;SDS011;11868;45.606;5.302;2022-10-04T01:55:27;21.45;;;7.28;;
23390;SDS011;11868;45.606;5.302;2022-10-04T01:57:56;23.70;;;8.52;;
23390;SDS011;11868;45.606;5.302;2022-10-04T02:00:33;30.25;;;8.95;;
23390;SDS011;11868;45.606;5.302;2022-10-04T02:03:07;34.70;;;9.95;;
23390;SDS011;11868;45.606;5.302;2022-10-04T02:05:39;32.22;;;10.00;;
23390;SDS011;11868;45.606;5.302;2022-10-04T02:08:08;27.40;;;8.27;;
23390;SDS011;11868;45.606;5.302;2022-10-04T02:10:35;19.90;;;7.47;;
23390;SDS011;11868;45.606;5.302;2022-10-04T02:13:03;21.85;;;7.70;;
23390;SDS011;11868;45.606;5.302;2022-10-04T02:15:34;22.98;;;8.02;;
23390;SDS011;11868;45.606;5.302;2022-10-04T02:18:03;27.58;;;8.70;;
23390;SDS011;11868;45.606;5.302;2022-10-04T02:20:33;29.48;;;9.02;;
23390;SDS011;11868;45.606;5.302;2022-10-04T02:23:00;20.83;;;7.70;;
23390;SDS011;11868;45.606;5.302;2022-10-04T02:25:27;20.35;;;7.47;;
23390;SDS011;11868;45.606;5.302;2022-10-04T02:27:53;20.73;;;7.55;;
23390;SDS011;11868;45.606;5.302;2022-10-04T02:30:18;22.90;;;8.30;;
23390;SDS011;11868;45.606;5.302;2022-10-04T02:32:44;24.52;;;7.57;;
23390;SDS011;11868;45.606;5.302;2022-10-04T02:35:29;23.30;;;8.13;;
23390;SDS011;11868;45.606;5.302;2022-10-04T02:38:14;23.55;;;8.20;;
23390;SDS011;11868;45.606;5.302;2022-10-04T02:43:26;16.10;;;5.85;;
23390;SDS011;11868;45.606;5.302;2022-10-04T02:48:44;11.27;;;5.40;;
23390;SDS011;11868;45.606;5.302;2022-10-04T02:51:16;15.27;;;5.90;;
23390;SDS011;11868;45.606;5.302;2022-10-04T02:53:48;17.40;;;6.43;;
23390;SDS011;11868;45.606;5.302;2022-10-04T02:56:17;30.17;;;7.70;;
23390;SDS011;11868;45.606;5.302;2022-10-04T02:58:43;23.55;;;8.10;;
23390;SDS011;11868;45.606;5.302;2022-10-04T03:04:01;20.73;;;7.50;;
23390;SDS011;11868;45.606;5.302;2022-10-04T03:06:27;20.60;;;7.75;;
23390;SDS011;11868;45.606;5.302;2022-10-04T03:08:57;19.45;;;7.15;;
23390;SDS011;11868;45.606;5.302;2022-10-04T03:11:26;17.33;;;6.03;;
23390;SDS011;11868;45.606;5.302;2022-10-04T03:13:55;15.48;;;6.43;;
23390;SDS011;11868;45.606;5.302;2022-10-04T03:16:22;14.43;;;5.40;;
23390;SDS011;11868;45.606;5.302;2022-10-04T03:18:49;11.02;;;5.22;;
23390;SDS011;11868;45.606;5.302;2022-10-04T03:21:16;12.57;;;4.78;;
23390;SDS011;11868;45.606;5.302;2022-10-04T03:23:43;12.77;;;5.13;;
23390;SDS011;11868;45.606;5.302;2022-10-04T03:28:54;5.90;;;4.57;;
23390;SDS011;11868;45.606;5.302;2022-10-04T03:31:21;7.15;;;4.25;;
23390;SDS011;11868;45.606;5.302;2022-10-04T03:33:46;11.48;;;4.88;;
23390;SDS011;11868;45.606;5.302;2022-10-04T03:36:13;7.63;;;4.57;;
23390;SDS011;11868;45.606;5.302;2022-10-04T03:38:43;7.70;;;4.20;;
23390;SDS011;11868;45.606;5.302;2022-10-04T03:41:10;10.63;;;4.25;;
23390;SDS011;11868;45.606;5.302;2022-10-04T03:43:37;7.55;;;4.18;;
23390;SDS011;11868;45.606;5.302;2022-10-04T03:46:08;7.30;;;4.35;;
23390;SDS011;11868;45.606;5.302;2022-10-04T03:48:36;7.25;;;4.28;;
23390;SDS011;11868;45.606;5.302;2022-10-04T03:51:05;8.15;;;4.80;;
23390;SDS011;11868;45.606;5.302;2022-10-04T03:53:39;7.50;;;4.22;;
23390;SDS011;11868;45.606;5.302;2022-10-04T03:56:08;8.40;;;4.78;;
23390;SDS011;11868;45.606;5.302;2022-10-04T03:58:37;7.70;;;4.80;;
23390;SDS011;11868;45.606;5.302;2022-10-04T04:04:27;8.55;;;4.65;;
23390;SDS011;11868;45.606;5.302;2022-10-04T04:12:39;10.70;;;5.13;;
23390;SDS011;11868;45.606;5.302;2022-10-04T04:15:11;8.20;;;4.50;;
23390;SDS011;11868;45.606;5.302;2022-10-04T04:17:44;6.63;;;4.80;;
23390;SDS011;11868;45.606;5.302;2022-10-04T04:26:00;11.88;;;4.72;;
23390;SDS011;11868;45.606;5.302;2022-10-04T04:28:43;10.85;;;5.18;;
23390;SDS011;11868;45.606;5.302;2022-10-04T04:31:24;10.52;;;5.13;;
23390;SDS011;11868;45.606;5.302;2022-10-04T04:33:56;7.45;;;4.78;;
23390;SDS011;11868;45.606;5.302;2022-10-04T04:36:24;14.10;;;7.60;;
23390;SDS011;11868;45.606;5.302;2022-10-04T04:38:51;11.90;;;8.32;;
23390;SDS011;11868;45.606;5.302;2022-10-04T04:41:35;12.88;;;8.88;;
23390;SDS011;11868;45.606;5.302;2022-10-04T04:44:01;13.23;;;9.73;;
23390;SDS011;11868;45.606;5.302;2022-10-04T04:46:27;14.18;;;10.73;;
23390;SDS011;11868;45.606;5.302;2022-10-04T04:49:01;19.92;;;12.63;;
23390;SDS011;11868;45.606;5.302;2022-10-04T04:51:28;29.70;;;13.85;;
23390;SDS011;11868;45.606;5.302;2022-10-04T04:53:55;22.45;;;13.13;;
23390;SDS011;11868;45.606;5.302;2022-10-04T04:56:24;23.30;;;14.20;;
23390;SDS011;11868;45.606;5.302;2022-10-04T04:58:52;162.75;;;13.73;;
23390;SDS011;11868;45.606;5.302;2022-10-04T05:03:59;20.92;;;14.23;;
23390;SDS011;11868;45.606;5.302;2022-10-04T05:06:37;26.70;;;14.13;;
23390;SDS011;11868;45.606;5.302;2022-10-04T05:09:03;20.20;;;13.70;;
23390;SDS011;11868;45.606;5.302;2022-10-04T05:11:30;19.33;;;14.85;;
23390;SDS011;11868;45.606;5.302;2022-10-04T05:13:58;18.92;;;14.13;;
23390;SDS011;11868;45.606;5.302;2022-10-04T05:18:59;19.48;;;13.88;;
23390;SDS011;11868;45.606;5.302;2022-10-04T05:21:30;51.17;;;15.50;;
23390;SDS011;11868;45.606;5.302;2022-10-04T05:24:05;20.90;;;15.65;;
23390;SDS011;11868;45.606;5.302;2022-10-04T05:26:36;23.60;;;17.77;;
23390;SDS011;11868;45.606;5.302;2022-10-04T05:29:07;30.10;;;16.15;;
23390;SDS011;11868;45.606;5.302;2022-10-04T05:34:05;32.47;;;16.13;;
23390;SDS011;11868;45.606;5.302;2022-10-04T05:36:55;28.17;;;15.30;;
23390;SDS011;11868;45.606;5.302;2022-10-04T05:42:04;34.55;;;14.38;;
23390;SDS011;11868;45.606;5.302;2022-10-04T05:44:35;20.25;;;13.40;;
23390;SDS011;11868;45.606;5.302;2022-10-04T05:47:10;53.53;;;17.23;;
23390;SDS011;11868;45.606;5.302;2022-10-04T05:49:39;25.80;;;13.85;;
23390;SDS011;11868;45.606;5.302;2022-10-04T05:52:15;27.17;;;14.05;;
23390;SDS011;11868;45.606;5.302;2022-10-04T05:54:52;55.42;;;14.52;;
23390;SDS011;11868;45.606;5.302;2022-10-04T06:00:43;25.00;;;13.55;;
23390;SDS011;11868;45.606;5.302;2022-10-04T06:11:11;16.55;;;11.38;;
23390;SDS011;11868;45.606;5.302;2022-10-04T06:16:23;13.55;;;10.57;;
23390;SDS011;11868;45.606;5.302;2022-10-04T06:19:24;20.27;;;11.50;;
23390;SDS011;11868;45.606;5.302;2022-10-04T06:24:24;12.30;;;9.77;;
23390;SDS011;11868;45.606;5.302;2022-10-04T06:26:52;23.37;;;10.20;;
23390;SDS011;11868;45.606;5.302;2022-10-04T06:29:29;12.77;;;9.05;;
23390;SDS011;11868;45.606;5.302;2022-10-04T06:37:42;10.68;;;8.50;;
23390;SDS011;11868;45.606;5.302;2022-10-04T06:43:03;10.95;;;8.50;;
23390;SDS011;11868;45.606;5.302;2022-10-04T06:45:36;10.85;;;9.07;;
23390;SDS011;11868;45.606;5.302;2022-10-04T06:50:49;12.70;;;8.93;;
23390;SDS011;11868;45.606;5.302;2022-10-04T06:59:18;9.45;;;7.40;;
23390;SDS011;11868;45.606;5.302;2022-10-04T07:01:52;10.32;;;8.13;;
23390;SDS011;11868;45.606;5.302;2022-10-04T07:07:14;9.93;;;8.50;;
23390;SDS011;11868;45.606;5.302;2022-10-04T07:12:47;23.58;;;12.38;;
23390;SDS011;11868;45.606;5.302;2022-10-04T07:15:25;16.60;;;11.63;;
23390;SDS011;11868;45.606;5.302;2022-10-04T07:17:53;19.30;;;13.18;;
23390;SDS011;11868;45.606;5.302;2022-10-04T07:20:22;21.05;;;13.43;;
23390;SDS011;11868;45.606;5.302;2022-10-04T07:22:57;23.30;;;13.95;;
23390;SDS011;11868;45.606;5.302;2022-10-04T07:25:33;22.83;;;14.98;;
23390;SDS011;11868;45.606;5.302;2022-10-04T07:28:09;46.45;;;16.08;;
23390;SDS011;11868;45.606;5.302;2022-10-04T07:30:59;29.70;;;16.05;;
23390;SDS011;11868;45.606;5.302;2022-10-04T07:33:27;25.05;;;14.82;;
23390;SDS011;11868;45.606;5.302;2022-10-04T07:36:08;27.77;;;16.23;;
23390;SDS011;11868;45.606;5.302;2022-10-04T07:38:50;29.60;;;16.58;;
23390;SDS011;11868;45.606;5.302;2022-10-04T07:41:20;26.77;;;15.00;;
23390;SDS011;11868;45.606;5.302;2022-10-04T07:44:06;26.08;;;15.75;;
23390;SDS011;11868;45.606;5.302;2022-10-04T07:49:23;27.90;;;16.58;;
23390;SDS011;11868;45.606;5.302;2022-10-04T07:51:56;30.13;;;17.02;;
23390;SDS011;11868;45.606;5.302;2022-10-04T07:54:27;26.33;;;15.70;;
23390;SDS011;11868;45.606;5.302;2022-10-04T07:57:07;25.88;;;15.98;;
23390;SDS011;11868;45.606;5.302;2022-10-04T08:13:25;25.20;;;16.58;;
23390;SDS011;11868;45.606;5.302;2022-10-04T08:15:58;23.20;;;15.65;;
23390;SDS011;11868;45.606;5.302;2022-10-04T08:21:32;23.42;;;16.85;;
23390;SDS011;11868;45.606;5.302;2022-10-04T08:24:17;22.75;;;16.85;;
23390;SDS011;11868;45.606;5.302;2022-10-04T08:32:30;16.98;;;13.43;;
23390;SDS011;11868;45.606;5.302;2022-10-04T08:35:14;22.58;;;14.80;;
23390;SDS011;11868;45.606;5.302;2022-10-04T09:00:33;24.17;;;15.00;;
23390;SDS011;11868;45.606;5.302;2022-10-04T09:16:48;21.45;;;14.27;;
23390;SDS011;11868;45.606;5.302;2022-10-04T09:19:18;18.25;;;14.13;;
23390;SDS011;11868;45.606;5.302;2022-10-04T09:26:58;21.30;;;14.52;;
23390;SDS011;11868;45.606;5.302;2022-10-04T09:29:33;17.85;;;13.00;;
23390;SDS011;11868;45.606;5.302;2022-10-04T09:48:43;17.52;;;12.98;;
23390;SDS011;11868;45.606;5.302;2022-10-04T10:00:19;15.68;;;11.85;;
23390;SDS011;11868;45.606;5.302;2022-10-04T10:05:27;16.02;;;11.68;;
23390;SDS011;11868;45.606;5.302;2022-10-04T10:10:42;17.35;;;12.32;;
23390;SDS011;11868;45.606;5.302;2022-10-04T10:13:47;14.32;;;10.32;;
23390;SDS011;11868;45.606;5.302;2022-10-04T10:19:25;13.85;;;10.02;;
23390;SDS011;11868;45.606;5.302;2022-10-04T10:22:35;14.07;;;10.60;;
23390;SDS011;11868;45.606;5.302;2022-10-04T10:39:32;14.93;;;8.75;;
23390;SDS011;11868;45.606;5.302;2022-10-04T11:07:59;9.95;;;7.45;;
23390;SDS011;11868;45.606;5.302;2022-10-04T11:24:41;11.00;;;6.30;;
23390;SDS011;11868;45.606;5.302;2022-10-04T11:30:23;10.48;;;5.45;;
23390;SDS011;11868;45.606;5.302;2022-10-04T11:36:36;10.02;;;4.75;;
23390;SDS011;11868;45.606;5.302;2022-10-04T11:44:26;8.25;;;4.88;;
23390;SDS011;11868;45.606;5.302;2022-10-04T11:50:19;6.03;;;4.82;;
23390;SDS011;11868;45.606;5.302;2022-10-04T11:58:12;5.75;;;4.38;;
23390;SDS011;11868;45.606;5.302;2022-10-04T12:09:08;6.07;;;4.07;;
23390;SDS011;11868;45.606;5.302;2022-10-04T12:36:48;5.88;;;3.20;;
23390;SDS011;11868;45.606;5.302;2022-10-04T12:45:14;4.60;;;2.95;;
23390;SDS011;11868;45.606;5.302;2022-10-04T12:48:01;3.53;;;2.47;;
23390;SDS011;11868;45.606;5.302;2022-10-04T12:50:34;4.60;;;2.47;;
23390;SDS011;11868;45.606;5.302;2022-10-04T13:01:12;2.22;;;2.03;;
23390;SDS011;11868;45.606;5.302;2022-10-04T13:09:07;4.45;;;2.10;;
23390;SDS011;11868;45.606;5.302;2022-10-04T13:12:00;3.88;;;2.00;;
23390;SDS011;11868;45.606;5.302;2022-10-04T13:17:31;5.33;;;2.07;;
23390;SDS011;11868;45.606;5.302;2022-10-04T13:33:36;4.38;;;1.80;;
23390;SDS011;11868;45.606;5.302;2022-10-04T13:39:25;3.97;;;1.80;;
23390;SDS011;11868;45.606;5.302;2022-10-04T13:42:07;3.60;;;1.55;;
23390;SDS011;11868;45.606;5.302;2022-10-04T14:41:30;3.90;;;1.25;;
23390;SDS011;11868;45.606;5.302;2022-10-04T14:50:07;2.70;;;1.23;;
23390;SDS011;11868;45.606;5.302;2022-10-04T14:55:36;2.67;;;1.42;;
23390;SDS011;11868;45.606;5.302;2022-10-04T15:01:20;7.38;;;2.33;;
23390;SDS011;11868;45.606;5.302;2022-10-04T15:04:04;4.10;;;2.40;;
23390;SDS011;11868;45.606;5.302;2022-10-04T15:07:03;4.13;;;2.38;;
23390;SDS011;11868;45.606;5.302;2022-10-04T15:17:59;8.77;;;2.47;;
23390;SDS011;11868;45.606;5.302;2022-10-04T15:23:31;6.00;;;2.50;;
23390;SDS011;11868;45.606;5.302;2022-10-04T15:39:42;5.22;;;2.75;;
23390;SDS011;11868;45.606;5.302;2022-10-04T15:42:31;5.53;;;2.50;;
23390;SDS011;11868;45.606;5.302;2022-10-04T15:45:09;7.25;;;2.53;;
23390;SDS011;11868;45.606;5.302;2022-10-04T15:51:18;8.10;;;2.67;;
23390;SDS011;11868;45.606;5.302;2022-10-04T15:56:55;7.82;;;3.30;;
23390;SDS011;11868;45.606;5.302;2022-10-04T15:59:48;10.35;;;2.88;;
23390;SDS011;11868;45.606;5.302;2022-10-04T16:02:23;3.92;;;3.10;;
23390;SDS011;11868;45.606;5.302;2022-10-04T16:21:41;5.85;;;3.17;;
23390;SDS011;11868;45.606;5.302;2022-10-04T16:32:00;4.05;;;2.95;;
23390;SDS011;11868;45.606;5.302;2022-10-04T16:43:02;7.22;;;2.80;;
23390;SDS011;11868;45.606;5.302;2022-10-04T16:45:34;7.68;;;3.30;;
23390;SDS011;11868;45.606;5.302;2022-10-04T16:56:29;5.15;;;2.90;;
23390;SDS011;11868;45.606;5.302;2022-10-04T16:59:14;9.90;;;3.40;;
23390;SDS011;11868;45.606;5.302;2022-10-04T17:13:07;6.90;;;3.30;;
23390;SDS011;11868;45.606;5.302;2022-10-04T17:16:00;5.30;;;3.30;;
23390;SDS011;11868;45.606;5.302;2022-10-04T17:18:47;8.25;;;3.42;;
23390;SDS011;11868;45.606;5.302;2022-10-04T17:34:51;6.25;;;3.88;;
23390;SDS011;11868;45.606;5.302;2022-10-04T17:47:41;7.82;;;3.70;;
23390;SDS011;11868;45.606;5.302;2022-10-04T17:50:32;11.63;;;3.80;;
23390;SDS011;11868;45.606;5.302;2022-10-04T17:53:23;5.90;;;3.70;;
23390;SDS011;11868;45.606;5.302;2022-10-04T17:56:10;4.85;;;3.78;;
23390;SDS011;11868;45.606;5.302;2022-10-04T17:58:45;9.48;;;4.15;;
23390;SDS011;11868;45.606;5.302;2022-10-04T18:01:18;10.75;;;3.90;;
23390;SDS011;11868;45.606;5.302;2022-10-04T18:03:52;6.75;;;4.13;;
23390;SDS011;11868;45.606;5.302;2022-10-04T18:06:30;9.10;;;4.25;;
23390;SDS011;11868;45.606;5.302;2022-10-04T18:09:09;6.82;;;3.70;;
23390;SDS011;11868;45.606;5.302;2022-10-04T18:11:48;9.20;;;4.63;;
23390;SDS011;11868;45.606;5.302;2022-10-04T18:17:09;7.88;;;4.85;;
23390;SDS011;11868;45.606;5.302;2022-10-04T18:22:18;6.60;;;4.60;;
23390;SDS011;11868;45.606;5.302;2022-10-04T18:24:46;7.93;;;4.50;;
23390;SDS011;11868;45.606;5.302;2022-10-04T18:27:15;7.03;;;4.45;;
23390;SDS011;11868;45.606;5.302;2022-10-04T18:30:28;6.25;;;4.57;;
23390;SDS011;11868;45.606;5.302;2022-10-04T18:34:56;7.80;;;4.85;;
23390;SDS011;11868;45.606;5.302;2022-10-04T18:37:40;8.00;;;5.20;;
23390;SDS011;11868;45.606;5.302;2022-10-04T18:40:16;7.50;;;5.28;;
23390;SDS011;11868;45.606;5.302;2022-10-04T18:43:07;9.13;;;5.32;;
23390;SDS011;11868;45.606;5.302;2022-10-04T18:46:37;8.85;;;5.40;;
23390;SDS011;11868;45.606;5.302;2022-10-04T18:48:50;9.75;;;6.05;;
23390;SDS011;11868;45.606;5.302;2022-10-04T18:51:30;8.10;;;5.90;;
23390;SDS011;11868;45.606;5.302;2022-10-04T18:59:32;12.10;;;5.70;;
23390;SDS011;11868;45.606;5.302;2022-10-04T19:05:30;11.00;;;7.40;;
23390;SDS011;11868;45.606;5.302;2022-10-04T19:11:01;12.10;;;7.10;;
23390;SDS011;11868;45.606;5.302;2022-10-04T19:13:43;11.35;;;7.00;;
23390;SDS011;11868;45.606;5.302;2022-10-04T19:18:46;10.10;;;6.53;;
23390;SDS011;11868;45.606;5.302;2022-10-04T19:21:22;12.20;;;7.15;;
23390;SDS011;11868;45.606;5.302;2022-10-04T19:26:39;15.07;;;8.50;;
23390;SDS011;11868;45.606;5.302;2022-10-04T19:32:13;14.98;;;6.97;;
23390;SDS011;11868;45.606;5.302;2022-10-04T19:37:23;10.35;;;7.40;;
23390;SDS011;11868;45.606;5.302;2022-10-04T19:42:50;14.98;;;8.05;;
23390;SDS011;11868;45.606;5.302;2022-10-04T19:45:33;14.27;;;7.82;;
23390;SDS011;11868;45.606;5.302;2022-10-04T19:48:03;9.75;;;7.07;;
23390;SDS011;11868;45.606;5.302;2022-10-04T19:50:45;13.15;;;7.03;;
23390;SDS011;11868;45.606;5.302;2022-10-04T19:53:15;10.13;;;6.63;;
23390;SDS011;11868;45.606;5.302;2022-10-04T19:55:54;9.88;;;6.57;;
23390;SDS011;11868;45.606;5.302;2022-10-04T19:58:34;12.07;;;7.10;;
23390;SDS011;11868;45.606;5.302;2022-10-04T20:01:06;14.15;;;7.05;;
23390;SDS011;11868;45.606;5.302;2022-10-04T20:03:34;11.05;;;6.97;;
23390;SDS011;11868;45.606;5.302;2022-10-04T20:06:00;11.95;;;7.68;;
23390;SDS011;11868;45.606;5.302;2022-10-04T20:08:43;10.68;;;7.30;;
23390;SDS011;11868;45.606;5.302;2022-10-04T20:11:19;12.25;;;6.80;;
23390;SDS011;11868;45.606;5.302;2022-10-04T20:19:19;8.75;;;6.57;;
23390;SDS011;11868;45.606;5.302;2022-10-04T20:21:48;9.93;;;6.18;;
23390;SDS011;11868;45.606;5.302;2022-10-04T20:24:14;6.90;;;5.18;;
23390;SDS011;11868;45.606;5.302;2022-10-04T20:34:50;9.88;;;5.20;;
23390;SDS011;11868;45.606;5.302;2022-10-04T20:37:16;8.30;;;4.97;;
23390;SDS011;11868;45.606;5.302;2022-10-04T20:44:54;9.48;;;5.05;;
23390;SDS011;11868;45.606;5.302;2022-10-04T20:49:55;6.63;;;5.47;;
23390;SDS011;11868;45.606;5.302;2022-10-04T20:52:28;10.80;;;5.65;;
23390;SDS011;11868;45.606;5.302;2022-10-04T20:54:56;9.88;;;5.78;;
23390;SDS011;11868;45.606;5.302;2022-10-04T20:57:24;11.70;;;5.65;;
23390;SDS011;11868;45.606;5.302;2022-10-04T20:59:50;11.10;;;5.53;;
23390;SDS011;11868;45.606;5.302;2022-10-04T21:02:18;8.85;;;5.35;;
23390;SDS011;11868;45.606;5.302;2022-10-04T21:04:45;11.73;;;5.05;;
23390;SDS011;11868;45.606;5.302;2022-10-04T21:07:21;11.40;;;5.72;;
23390;SDS011;11868;45.606;5.302;2022-10-04T21:09:48;12.10;;;4.50;;
23390;SDS011;11868;45.606;5.302;2022-10-04T21:12:26;11.18;;;5.40;;
23390;SDS011;11868;45.606;5.302;2022-10-04T21:15:00;8.57;;;5.45;;
23390;SDS011;11868;45.606;5.302;2022-10-04T21:19:52;12.07;;;5.60;;
23390;SDS011;11868;45.606;5.302;2022-10-04T21:27:28;16.60;;;5.43;;
23390;SDS011;11868;45.606;5.302;2022-10-04T21:29:57;8.82;;;4.80;;
23390;SDS011;11868;45.606;5.302;2022-10-04T21:32:24;7.95;;;4.43;;
23390;SDS011;11868;45.606;5.302;2022-10-04T21:34:51;6.65;;;4.82;;
23390;SDS011;11868;45.606;5.302;2022-10-04T21:37:16;6.97;;;4.35;;
23390;SDS011;11868;45.606;5.302;2022-10-04T21:39:42;8.13;;;4.97;;
23390;SDS011;11868;45.606;5.302;2022-10-04T21:42:08;9.60;;;4.65;;
23390;SDS011;11868;45.606;5.302;2022-10-04T21:44:33;10.68;;;4.75;;
23390;SDS011;11868;45.606;5.302;2022-10-04T21:46:59;9.73;;;5.53;;
23390;SDS011;11868;45.606;5.302;2022-10-04T21:49:24;11.35;;;6.30;;
23390;SDS011;11868;45.606;5.302;2022-10-04T21:51:50;9.15;;;6.05;;
23390;SDS011;11868;45.606;5.302;2022-10-04T21:54:15;15.25;;;6.60;;
23390;SDS011;11868;45.606;5.302;2022-10-04T21:56:41;8.82;;;6.40;;
23390;SDS011;11868;45.606;5.302;2022-10-04T21:59:06;8.35;;;6.82;;
23390;SDS011;11868;45.606;5.302;2022-10-04T22:01:32;14.90;;;6.90;;
23390;SDS011;11868;45.606;5.302;2022-10-04T22:03:57;11.52;;;6.85;;
23390;SDS011;11868;45.606;5.302;2022-10-04T22:06:23;11.90;;;6.75;;
23390;SDS011;11868;45.606;5.302;2022-10-04T22:08:48;9.45;;;7.45;;
23390;SDS011;11868;45.606;5.302;2022-10-04T22:11:13;14.00;;;6.68;;
23390;SDS011;11868;45.606;5.302;2022-10-04T22:13:39;10.02;;;6.68;;
23390;SDS011;11868;45.606;5.302;2022-10-04T22:16:04;9.02;;;6.05;;
23390;SDS011;11868;45.606;5.302;2022-10-04T22:18:30;11.45;;;6.40;;
23390;SDS011;11868;45.606;5.302;2022-10-04T22:20:56;7.05;;;5.50;;
23390;SDS011;11868;45.606;5.302;2022-10-04T22:23:23;8.63;;;6.20;;
23390;SDS011;11868;45.606;5.302;2022-10-04T22:25:51;10.68;;;6.10;;
23390;SDS011;11868;45.606;5.302;2022-10-04T22:28:20;9.57;;;6.20;;
23390;SDS011;11868;45.606;5.302;2022-10-04T22:30:48;12.82;;;6.32;;
23390;SDS011;11868;45.606;5.302;2022-10-04T22:33:34;11.02;;;6.35;;
23390;SDS011;11868;45.606;5.302;2022-10-04T22:38:58;9.68;;;5.53;;
23390;SDS011;11868;45.606;5.302;2022-10-04T22:41:26;10.35;;;5.82;;
23390;SDS011;11868;45.606;5.302;2022-10-04T22:43:54;8.32;;;5.97;;
23390;SDS011;11868;45.606;5.302;2022-10-04T22:46:29;15.02;;;5.05;;
23390;SDS011;11868;45.606;5.302;2022-10-04T22:48:57;7.78;;;4.95;;
23390;SDS011;11868;45.606;5.302;2022-10-04T22:51:25;9.18;;;4.82;;
23390;SDS011;11868;45.606;5.302;2022-10-04T22:53:54;7.22;;;5.03;;
23390;SDS011;11868;45.606;5.302;2022-10-04T22:56:20;11.75;;;4.68;;
23390;SDS011;11868;45.606;5.302;2022-10-04T22:58:45;8.32;;;4.40;;
23390;SDS011;11868;45.606;5.302;2022-10-04T23:01:11;6.97;;;5.05;;
23390;SDS011;11868;45.606;5.302;2022-10-04T23:03:39;8.02;;;4.35;;
23390;SDS011;11868;45.606;5.302;2022-10-04T23:06:09;6.50;;;4.30;;
23390;SDS011;11868;45.606;5.302;2022-10-04T23:08:38;8.45;;;4.60;;
23390;SDS011;11868;45.606;5.302;2022-10-04T23:11:04;7.53;;;4.50;;
23390;SDS011;11868;45.606;5.302;2022-10-04T23:13:30;11.85;;;5.28;;
23390;SDS011;11868;45.606;5.302;2022-10-04T23:15:56;7.03;;;4.63;;
23390;SDS011;11868;45.606;5.302;2022-10-04T23:18:24;8.25;;;4.50;;
23390;SDS011;11868;45.606;5.302;2022-10-04T23:20:52;8.52;;;4.45;;
23390;SDS011;11868;45.606;5.302;2022-10-04T23:23:20;5.38;;;4.43;;
23390;SDS011;11868;45.606;5.302;2022-10-04T23:25:46;5.88;;;4.15;;
23390;SDS011;11868;45.606;5.302;2022-10-04T23:28:16;4.60;;;3.63;;
23390;SDS011;11868;45.606;5.302;2022-10-04T23:30:42;9.88;;;3.13;;
23390;SDS011;11868;45.606;5.302;2022-10-04T23:33:28;4.43;;;3.25;;
23390;SDS011;11868;45.606;5.302;2022-10-04T23:35:53;9.63;;;3.20;;
23390;SDS011;11868;45.606;5.302;2022-10-04T23:38:19;8.65;;;3.00;;
23390;SDS011;11868;45.606;5.302;2022-10-04T23:40:46;3.78;;;2.85;;
23390;SDS011;11868;45.606;5.302;2022-10-04T23:43:15;5.60;;;2.53;;
23390;SDS011;11868;45.606;5.302;2022-10-04T23:45:42;7.53;;;3.10;;
23390;SDS011;11868;45.606;5.302;2022-10-04T23:48:09;3.45;;;2.63;;
23390;SDS011;11868;45.606;5.302;2022-10-04T23:50:36;5.65;;;2.47;;
23390;SDS011;11868;45.606;5.302;2022-10-04T23:53:03;8.00;;;2.70;;
23390;SDS011;11868;45.606;5.302;2022-10-04T23:55:34;6.18;;;2.80;;
23390;SDS011;11868;45.606;5.302;2022-10-04T23:58:00;6.43;;;2.63;;
